Check out our new PWSWeather beta!
PWSweather.com
Personal Weather Stations
Station Observations
PICKERING
North Yorkshire, PickeringGB

North YorkshirePickeringGB

Lat: 54.2494, Lon: -0.7725

Elevation: 192

Station Type: Oregon Scientific WMR100

High Low Average
Temperature 87.8°F31.0°C 59.5°F15.3°C 69.0°F20.6°C
Dew Point 66.2°F19.0°C 53.6°F12.0°C 58.2°F14.6°C
Winds 8.0 mph 12.9 kmh Calm Calm 3.0 mph ESE4.8 kmh ESE
Wind Gusts 13.2 mph21.2 kmh -- 5.0 mph8.0 kmh
Humidity 83% 45% 69%
Pressure 29.98 in1015.2 mb 29.71 in1006.1 mb -
Precipitation 0.35 in8.9 mm - -
Hour Temp Dew Point Humidity Winds Wind Gusts Pressure Precip Precip Rate Daily Precip Total
12:00 AM 61.3°F16.3°C 53.6°F12.0°C 76% 2.4 mph NE3.9 kmh NE 2.9 mph4.7 kmh 29.98 in1015.2 mb 0.00 in0.0 mm 0.00 in0.0 mm 0.00 in0.0 mm
12:05 AM 61.2°F16.2°C 55.4°F13.0°C 77% 2.3 mph NNE3.7 kmh NNE 2.9 mph4.7 kmh 29.98 in1015.2 mb 0.00 in0.0 mm 0.00 in0.0 mm 0.00 in0.0 mm
12:10 AM 61.0°F16.1°C 53.6°F12.0°C 76% 2.3 mph NNE3.7 kmh NNE 2.9 mph4.7 kmh 29.98 in1015.2 mb 0.00 in0.0 mm 0.00 in0.0 mm 0.00 in0.0 mm
12:15 AM 61.0°F16.1°C 53.6°F12.0°C 77% 1.5 mph NNE2.4 kmh NNE 2.2 mph3.5 kmh 29.98 in1015.2 mb 0.00 in0.0 mm 0.00 in0.0 mm 0.00 in0.0 mm
12:20 AM 60.8°F16.0°C 53.6°F12.0°C 77% 0.7 mph NNE1.1 kmh NNE 2.2 mph3.5 kmh 29.98 in1015.2 mb 0.00 in0.0 mm 0.00 in0.0 mm 0.00 in0.0 mm
12:25 AM 60.8°F16.0°C 53.6°F12.0°C 77% 0.7 mph NNE1.1 kmh NNE 1.3 mph2.1 kmh 29.98 in1015.2 mb 0.00 in0.0 mm 0.00 in0.0 mm 0.00 in0.0 mm
12:30 AM 60.6°F15.9°C 53.6°F12.0°C 77% 0.9 mph NNE1.4 kmh NNE 1.6 mph2.6 kmh 29.98 in1015.2 mb 0.00 in0.0 mm 0.00 in0.0 mm 0.00 in0.0 mm
12:35 AM 60.3°F15.7°C 53.6°F12.0°C 77% 0.4 mph NNE0.6 kmh NNE 1.6 mph2.6 kmh 29.98 in1015.2 mb 0.00 in0.0 mm 0.00 in0.0 mm 0.00 in0.0 mm
12:40 AM 60.3°F15.7°C 53.6°F12.0°C 77% 0.7 mph NNE1.1 kmh NNE 1.6 mph2.6 kmh 29.98 in1015.2 mb 0.00 in0.0 mm 0.00 in0.0 mm 0.00 in0.0 mm
12:45 AM 60.1°F15.6°C 53.6°F12.0°C 77% 1.5 mph NNE2.4 kmh NNE 2.2 mph3.5 kmh 29.98 in1015.2 mb 0.00 in0.0 mm 0.00 in0.0 mm 0.00 in0.0 mm
12:50 AM 59.9°F15.5°C 53.6°F12.0°C 77% 1.5 mph NNE2.4 kmh NNE 2.7 mph4.3 kmh 29.98 in1015.2 mb 0.00 in0.0 mm 0.00 in0.0 mm 0.00 in0.0 mm
12:55 AM 59.9°F15.5°C 53.6°F12.0°C 77% 1.6 mph NE2.6 kmh NE 2.7 mph4.3 kmh 29.98 in1015.2 mb 0.00 in0.0 mm 0.00 in0.0 mm 0.00 in0.0 mm
01:00 AM 59.9°F15.5°C 53.6°F12.0°C 77% 1.7 mph NE2.7 kmh NE 2.9 mph4.7 kmh 29.98 in1015.2 mb 0.00 in0.0 mm 0.00 in0.0 mm 0.00 in0.0 mm
01:05 AM 59.9°F15.5°C 53.6°F12.0°C 77% 1.9 mph NNE3.1 kmh NNE 3.1 mph5.0 kmh 29.98 in1015.2 mb 0.00 in0.0 mm 0.00 in0.0 mm 0.00 in0.0 mm
01:10 AM 59.9°F15.5°C 53.6°F12.0°C 78% 1.9 mph NNE3.1 kmh NNE 3.1 mph5.0 kmh 29.98 in1015.2 mb 0.00 in0.0 mm 0.00 in0.0 mm 0.00 in0.0 mm
01:15 AM 59.9°F15.5°C 53.6°F12.0°C 78% 2.0 mph NE3.2 kmh NE 3.4 mph5.5 kmh 29.98 in1015.2 mb 0.00 in0.0 mm 0.00 in0.0 mm 0.00 in0.0 mm
01:20 AM 59.9°F15.5°C 53.6°F12.0°C 78% 2.5 mph NE4.0 kmh NE 3.4 mph5.5 kmh 29.95 in1014.2 mb 0.00 in0.0 mm 0.00 in0.0 mm 0.00 in0.0 mm
01:25 AM 59.9°F15.5°C 53.6°F12.0°C 78% 2.3 mph NNE3.7 kmh NNE 3.4 mph5.5 kmh 29.95 in1014.2 mb 0.00 in0.0 mm 0.00 in0.0 mm 0.00 in0.0 mm
01:30 AM 59.9°F15.5°C 53.6°F12.0°C 78% 1.7 mph NNE2.7 kmh NNE 2.9 mph4.7 kmh 29.95 in1014.2 mb 0.00 in0.0 mm 0.00 in0.0 mm 0.00 in0.0 mm
01:35 AM 59.9°F15.5°C 53.6°F12.0°C 78% 1.7 mph NE2.7 kmh NE 2.9 mph4.7 kmh 29.95 in1014.2 mb 0.00 in0.0 mm 0.00 in0.0 mm 0.00 in0.0 mm
01:40 AM 59.9°F15.5°C 53.6°F12.0°C 78% 2.0 mph NE3.2 kmh NE 2.5 mph4.0 kmh 29.95 in1014.2 mb 0.00 in0.0 mm 0.00 in0.0 mm 0.00 in0.0 mm
01:45 AM 59.9°F15.5°C 53.6°F12.0°C 78% 1.9 mph NE3.1 kmh NE 3.1 mph5.0 kmh 29.95 in1014.2 mb 0.00 in0.0 mm 0.00 in0.0 mm 0.00 in0.0 mm
01:50 AM 59.9°F15.5°C 53.6°F12.0°C 78% 2.1 mph NE3.4 kmh NE 3.1 mph5.0 kmh 29.95 in1014.2 mb 0.00 in0.0 mm 0.00 in0.0 mm 0.00 in0.0 mm
01:55 AM 60.1°F15.6°C 53.6°F12.0°C 78% 2.4 mph NE3.9 kmh NE 2.9 mph4.7 kmh 29.95 in1014.2 mb 0.00 in0.0 mm 0.00 in0.0 mm 0.00 in0.0 mm
02:00 AM 60.1°F15.6°C 53.6°F12.0°C 78% 2.6 mph NE4.2 kmh NE 3.1 mph5.0 kmh 29.95 in1014.2 mb 0.00 in0.0 mm 0.00 in0.0 mm 0.00 in0.0 mm
02:05 AM 60.1°F15.6°C 53.6°F12.0°C 78% 2.7 mph NE4.3 kmh NE 3.6 mph5.8 kmh 29.95 in1014.2 mb 0.00 in0.0 mm 0.00 in0.0 mm 0.00 in0.0 mm
02:10 AM 60.1°F15.6°C 53.6°F12.0°C 78% 3.0 mph NE4.8 kmh NE 3.6 mph5.8 kmh 29.95 in1014.2 mb 0.00 in0.0 mm 0.00 in0.0 mm 0.00 in0.0 mm
02:15 AM 60.1°F15.6°C 53.6°F12.0°C 78% 2.5 mph NE4.0 kmh NE 3.4 mph5.5 kmh 29.95 in1014.2 mb 0.00 in0.0 mm 0.00 in0.0 mm 0.00 in0.0 mm
02:20 AM 59.9°F15.5°C 53.6°F12.0°C 78% 2.3 mph NNE3.7 kmh NNE 3.1 mph5.0 kmh 29.95 in1014.2 mb 0.00 in0.0 mm 0.00 in0.0 mm 0.00 in0.0 mm
02:25 AM 59.9°F15.5°C 53.6°F12.0°C 78% 2.6 mph NE4.2 kmh NE 3.1 mph5.0 kmh 29.95 in1014.2 mb 0.00 in0.0 mm 0.00 in0.0 mm 0.00 in0.0 mm
02:30 AM 59.9°F15.5°C 53.6°F12.0°C 78% 1.9 mph NE3.1 kmh NE 3.1 mph5.0 kmh 29.95 in1014.2 mb 0.00 in0.0 mm 0.00 in0.0 mm 0.00 in0.0 mm
02:35 AM 59.9°F15.5°C 53.6°F12.0°C 78% 1.2 mph NNE1.9 kmh NNE 2.5 mph4.0 kmh 29.95 in1014.2 mb 0.00 in0.0 mm 0.00 in0.0 mm 0.00 in0.0 mm
02:40 AM 59.9°F15.5°C 53.6°F12.0°C 79% 1.4 mph NNE2.3 kmh NNE 2.7 mph4.3 kmh 29.95 in1014.2 mb 0.00 in0.0 mm 0.00 in0.0 mm 0.00 in0.0 mm
02:45 AM 59.9°F15.5°C 53.6°F12.0°C 79% 1.5 mph NNE2.4 kmh NNE 2.7 mph4.3 kmh 29.95 in1014.2 mb 0.00 in0.0 mm 0.00 in0.0 mm 0.00 in0.0 mm
02:50 AM 59.7°F15.4°C 53.6°F12.0°C 79% 0.8 mph NNE1.3 kmh NNE 2.2 mph3.5 kmh 29.95 in1014.2 mb 0.00 in0.0 mm 0.00 in0.0 mm 0.00 in0.0 mm
02:55 AM 59.7°F15.4°C 53.6°F12.0°C 79% 1.1 mph NE1.8 kmh NE 2.5 mph4.0 kmh 29.95 in1014.2 mb 0.00 in0.0 mm 0.00 in0.0 mm 0.00 in0.0 mm
03:00 AM 59.9°F15.5°C 53.6°F12.0°C 79% 1.9 mph NNE3.1 kmh NNE 2.5 mph4.0 kmh 29.95 in1014.2 mb 0.00 in0.0 mm 0.00 in0.0 mm 0.00 in0.0 mm
03:05 AM 59.9°F15.5°C 53.6°F12.0°C 79% 1.8 mph NNE2.9 kmh NNE 2.5 mph4.0 kmh 29.95 in1014.2 mb 0.00 in0.0 mm 0.00 in0.0 mm 0.00 in0.0 mm
03:10 AM 59.9°F15.5°C 53.6°F12.0°C 79% 1.5 mph NE2.4 kmh NE 2.7 mph4.3 kmh 29.95 in1014.2 mb 0.00 in0.0 mm 0.00 in0.0 mm 0.00 in0.0 mm
03:15 AM 59.9°F15.5°C 53.6°F12.0°C 79% 2.0 mph NE3.2 kmh NE 2.7 mph4.3 kmh 29.95 in1014.2 mb 0.00 in0.0 mm 0.00 in0.0 mm 0.00 in0.0 mm
03:20 AM 59.7°F15.4°C 53.6°F12.0°C 79% 2.3 mph NE3.7 kmh NE 2.9 mph4.7 kmh 29.95 in1014.2 mb 0.00 in0.0 mm 0.00 in0.0 mm 0.00 in0.0 mm
03:25 AM 59.9°F15.5°C 53.6°F12.0°C 79% 1.6 mph NE2.6 kmh NE 2.9 mph4.7 kmh 29.95 in1014.2 mb 0.00 in0.0 mm 0.00 in0.0 mm 0.00 in0.0 mm
03:30 AM 59.9°F15.5°C 53.6°F12.0°C 79% 1.1 mph NE1.8 kmh NE 2.5 mph4.0 kmh 29.95 in1014.2 mb 0.00 in0.0 mm 0.00 in0.0 mm 0.00 in0.0 mm
03:35 AM 59.9°F15.5°C 53.6°F12.0°C 79% 0.9 mph NE1.4 kmh NE 2.5 mph4.0 kmh 29.95 in1014.2 mb 0.00 in0.0 mm 0.00 in0.0 mm 0.00 in0.0 mm
03:40 AM 59.9°F15.5°C 53.6°F12.0°C 79% 0.7 mph NE1.1 kmh NE 2.0 mph3.2 kmh 29.95 in1014.2 mb 0.00 in0.0 mm 0.00 in0.0 mm 0.00 in0.0 mm
03:45 AM 59.9°F15.5°C 53.6°F12.0°C 79% 1.5 mph NE2.4 kmh NE 2.5 mph4.0 kmh 29.95 in1014.2 mb 0.00 in0.0 mm 0.00 in0.0 mm 0.00 in0.0 mm
03:50 AM 59.9°F15.5°C 53.6°F12.0°C 79% 1.4 mph NE2.3 kmh NE 2.5 mph4.0 kmh 29.95 in1014.2 mb 0.00 in0.0 mm 0.00 in0.0 mm 0.00 in0.0 mm
03:55 AM 59.9°F15.5°C 53.6°F12.0°C 79% 1.3 mph NE2.1 kmh NE 2.5 mph4.0 kmh 29.95 in1014.2 mb 0.00 in0.0 mm 0.00 in0.0 mm 0.00 in0.0 mm
04:00 AM 59.9°F15.5°C 53.6°F12.0°C 79% 1.7 mph NE2.7 kmh NE 2.5 mph4.0 kmh 29.95 in1014.2 mb 0.00 in0.0 mm 0.00 in0.0 mm 0.00 in0.0 mm
04:05 AM 59.9°F15.5°C 53.6°F12.0°C 79% 2.2 mph NE3.5 kmh NE 2.7 mph4.3 kmh 29.95 in1014.2 mb 0.00 in0.0 mm 0.00 in0.0 mm 0.00 in0.0 mm
04:10 AM 59.9°F15.5°C 53.6°F12.0°C 79% 1.9 mph NE3.1 kmh NE 2.7 mph4.3 kmh 29.95 in1014.2 mb 0.00 in0.0 mm 0.00 in0.0 mm 0.00 in0.0 mm
04:15 AM 59.9°F15.5°C 55.4°F13.0°C 80% 1.2 mph NE1.9 kmh NE 2.5 mph4.0 kmh 29.95 in1014.2 mb 0.00 in0.0 mm 0.00 in0.0 mm 0.00 in0.0 mm
04:20 AM 59.7°F15.4°C 53.6°F12.0°C 80% 0.9 mph NNE1.4 kmh NNE 2.0 mph3.2 kmh 29.95 in1014.2 mb 0.00 in0.0 mm 0.00 in0.0 mm 0.00 in0.0 mm
04:25 AM 59.7°F15.4°C 53.6°F12.0°C 80% 0.4 mph NNE0.6 kmh NNE 1.6 mph2.6 kmh 29.95 in1014.2 mb 0.00 in0.0 mm 0.00 in0.0 mm 0.00 in0.0 mm
04:30 AM 59.7°F15.4°C 53.6°F12.0°C 80% 0.3 mph NNE0.5 kmh NNE 1.6 mph2.6 kmh 29.95 in1014.2 mb 0.00 in0.0 mm 0.00 in0.0 mm 0.00 in0.0 mm
04:35 AM 59.9°F15.5°C 55.4°F13.0°C 80% 0.7 mph NNE1.1 kmh NNE 1.6 mph2.6 kmh 29.95 in1014.2 mb 0.00 in0.0 mm 0.00 in0.0 mm 0.00 in0.0 mm
04:40 AM 59.7°F15.4°C 53.6°F12.0°C 80% 0.5 mph NNE0.8 kmh NNE 1.3 mph2.1 kmh 29.95 in1014.2 mb 0.00 in0.0 mm 0.00 in0.0 mm 0.00 in0.0 mm
04:45 AM 59.7°F15.4°C 53.6°F12.0°C 80% 0.3 mph NNE0.5 kmh NNE 1.6 mph2.6 kmh 29.95 in1014.2 mb 0.00 in0.0 mm 0.00 in0.0 mm 0.00 in0.0 mm
04:50 AM 59.7°F15.4°C 53.6°F12.0°C 80% 0.5 mph NNE0.8 kmh NNE 1.6 mph2.6 kmh 29.92 in1013.2 mb 0.00 in0.0 mm 0.00 in0.0 mm 0.00 in0.0 mm
04:55 AM 59.5°F15.3°C 53.6°F12.0°C 81% 0.9 mph NNE1.4 kmh NNE 2.0 mph3.2 kmh 29.92 in1013.2 mb 0.00 in0.0 mm 0.00 in0.0 mm 0.00 in0.0 mm
05:00 AM 59.5°F15.3°C 53.6°F12.0°C 81% 0.8 mph NNE1.3 kmh NNE 2.0 mph3.2 kmh 29.92 in1013.2 mb 0.00 in0.0 mm 0.00 in0.0 mm 0.00 in0.0 mm
05:05 AM 59.7°F15.4°C 53.6°F12.0°C 81% 0.8 mph N1.3 kmh N 1.6 mph2.6 kmh 29.95 in1014.2 mb 0.00 in0.0 mm 0.00 in0.0 mm 0.00 in0.0 mm
05:10 AM 59.7°F15.4°C 53.6°F12.0°C 81% 0.8 mph N1.3 kmh N 2.0 mph3.2 kmh 29.95 in1014.2 mb 0.00 in0.0 mm 0.00 in0.0 mm 0.00 in0.0 mm
05:15 AM 59.7°F15.4°C 53.6°F12.0°C 81% 0.5 mph NNE0.8 kmh NNE 2.0 mph3.2 kmh 29.95 in1014.2 mb 0.00 in0.0 mm 0.00 in0.0 mm 0.00 in0.0 mm
05:20 AM 59.9°F15.5°C 55.4°F13.0°C 81% 0.5 mph NE0.8 kmh NE 1.3 mph2.1 kmh 29.92 in1013.2 mb 0.00 in0.0 mm 0.00 in0.0 mm 0.00 in0.0 mm
05:25 AM 60.1°F15.6°C 55.4°F13.0°C 81% 1.0 mph NE1.6 kmh NE 1.6 mph2.6 kmh 29.92 in1013.2 mb 0.00 in0.0 mm 0.00 in0.0 mm 0.00 in0.0 mm
05:30 AM 60.1°F15.6°C 55.4°F13.0°C 82% 1.3 mph NNE2.1 kmh NNE 2.5 mph4.0 kmh 29.92 in1013.2 mb 0.00 in0.0 mm 0.00 in0.0 mm 0.00 in0.0 mm
05:35 AM 60.3°F15.7°C 55.4°F13.0°C 82% 0.6 mph NNE1.0 kmh NNE 2.5 mph4.0 kmh 29.92 in1013.2 mb 0.00 in0.0 mm 0.00 in0.0 mm 0.00 in0.0 mm
05:40 AM 60.3°F15.7°C 55.4°F13.0°C 82% 0.8 mph NNE1.3 kmh NNE 2.7 mph4.3 kmh 29.92 in1013.2 mb 0.00 in0.0 mm 0.00 in0.0 mm 0.00 in0.0 mm
05:45 AM 60.3°F15.7°C 55.4°F13.0°C 82% 1.6 mph NNE2.6 kmh NNE 2.7 mph4.3 kmh 29.92 in1013.2 mb 0.00 in0.0 mm 0.00 in0.0 mm 0.00 in0.0 mm
05:50 AM 60.6°F15.9°C 55.4°F13.0°C 82% 1.6 mph NE2.6 kmh NE 2.7 mph4.3 kmh 29.92 in1013.2 mb 0.00 in0.0 mm 0.00 in0.0 mm 0.00 in0.0 mm
05:55 AM 60.6°F15.9°C 55.4°F13.0°C 82% 2.0 mph NE3.2 kmh NE 2.9 mph4.7 kmh 29.92 in1013.2 mb 0.00 in0.0 mm 0.00 in0.0 mm 0.00 in0.0 mm
06:00 AM 60.8°F16.0°C 55.4°F13.0°C 82% 2.2 mph NE3.5 kmh NE 2.9 mph4.7 kmh 29.92 in1013.2 mb 0.00 in0.0 mm 0.00 in0.0 mm 0.00 in0.0 mm
06:05 AM 61.0°F16.1°C 55.4°F13.0°C 82% 1.7 mph NE2.7 kmh NE 2.7 mph4.3 kmh 29.92 in1013.2 mb 0.00 in0.0 mm 0.00 in0.0 mm 0.00 in0.0 mm
06:10 AM 61.0°F16.1°C 55.4°F13.0°C 82% 1.2 mph NE1.9 kmh NE 2.7 mph4.3 kmh 29.92 in1013.2 mb 0.00 in0.0 mm 0.00 in0.0 mm 0.00 in0.0 mm
06:15 AM 61.2°F16.2°C 55.4°F13.0°C 82% 1.2 mph NNE1.9 kmh NNE 2.0 mph3.2 kmh 29.92 in1013.2 mb 0.00 in0.0 mm 0.00 in0.0 mm 0.00 in0.0 mm
06:20 AM 61.3°F16.3°C 55.4°F13.0°C 82% 1.5 mph NNE2.4 kmh NNE 2.0 mph3.2 kmh 29.92 in1013.2 mb 0.00 in0.0 mm 0.00 in0.0 mm 0.00 in0.0 mm
06:25 AM 61.5°F16.4°C 55.4°F13.0°C 82% 0.8 mph NNE1.3 kmh NNE 1.6 mph2.6 kmh 29.92 in1013.2 mb 0.00 in0.0 mm 0.00 in0.0 mm 0.00 in0.0 mm
06:30 AM 61.7°F16.5°C 57.2°F14.0°C 82% 0.3 mph NW0.5 kmh NW 0.9 mph1.4 kmh 29.92 in1013.2 mb 0.00 in0.0 mm 0.00 in0.0 mm 0.00 in0.0 mm
06:35 AM 61.9°F16.6°C 57.2°F14.0°C 82% 0.4 mph N0.6 kmh N 1.3 mph2.1 kmh 29.92 in1013.2 mb 0.00 in0.0 mm 0.00 in0.0 mm 0.00 in0.0 mm
06:40 AM 61.9°F16.6°C 57.2°F14.0°C 82% 0.4 mph N0.6 kmh N 1.3 mph2.1 kmh 29.92 in1013.2 mb 0.00 in0.0 mm 0.00 in0.0 mm 0.00 in0.0 mm
06:45 AM 62.4°F16.9°C 57.2°F14.0°C 83% 0.5 mph NNE0.8 kmh NNE 2.0 mph3.2 kmh 29.92 in1013.2 mb 0.00 in0.0 mm 0.00 in0.0 mm 0.00 in0.0 mm
06:50 AM 63.0°F17.2°C 57.2°F14.0°C 82% 0.8 mph NNE1.3 kmh NNE 2.0 mph3.2 kmh 29.92 in1013.2 mb 0.00 in0.0 mm 0.00 in0.0 mm 0.00 in0.0 mm
06:55 AM 63.3°F17.4°C 57.2°F14.0°C 81% 0.7 mph NNE1.1 kmh NNE 1.6 mph2.6 kmh 29.92 in1013.2 mb 0.00 in0.0 mm 0.00 in0.0 mm 0.00 in0.0 mm
07:00 AM 63.5°F17.5°C 57.2°F14.0°C 81% 0.3 mph NNE0.5 kmh NNE 1.6 mph2.6 kmh 29.92 in1013.2 mb 0.00 in0.0 mm 0.00 in0.0 mm 0.00 in0.0 mm
07:05 AM 63.5°F17.5°C 57.2°F14.0°C 80% Calm Calm -- 29.92 in1013.2 mb 0.00 in0.0 mm 0.00 in0.0 mm 0.00 in0.0 mm
07:10 AM 63.5°F17.5°C 57.2°F14.0°C 81% Calm Calm -- 29.92 in1013.2 mb 0.00 in0.0 mm 0.00 in0.0 mm 0.00 in0.0 mm
07:15 AM 63.7°F17.6°C 57.2°F14.0°C 81% Calm Calm -- 29.92 in1013.2 mb 0.00 in0.0 mm 0.00 in0.0 mm 0.00 in0.0 mm
07:20 AM 63.9°F17.7°C 57.2°F14.0°C 80% 0.2 mph W0.3 kmh W 1.1 mph1.8 kmh 29.92 in1013.2 mb 0.00 in0.0 mm 0.00 in0.0 mm 0.00 in0.0 mm
07:25 AM 64.0°F17.8°C 57.2°F14.0°C 80% 0.6 mph S1.0 kmh S 2.0 mph3.2 kmh 29.92 in1013.2 mb 0.00 in0.0 mm 0.00 in0.0 mm 0.00 in0.0 mm
07:30 AM 64.8°F18.2°C 59.0°F15.0°C 79% 0.9 mph SSE1.4 kmh SSE 2.5 mph4.0 kmh 29.92 in1013.2 mb 0.00 in0.0 mm 0.00 in0.0 mm 0.00 in0.0 mm
07:35 AM 65.5°F18.6°C 59.0°F15.0°C 79% 1.0 mph SSW1.6 kmh SSW 2.9 mph4.7 kmh 29.92 in1013.2 mb 0.00 in0.0 mm 0.00 in0.0 mm 0.00 in0.0 mm
07:40 AM 65.8°F18.8°C 59.0°F15.0°C 79% 1.0 mph SW1.6 kmh SW 2.9 mph4.7 kmh 29.92 in1013.2 mb 0.00 in0.0 mm 0.00 in0.0 mm 0.00 in0.0 mm
07:45 AM 66.0°F18.9°C 59.0°F15.0°C 78% 0.9 mph S1.4 kmh S 2.9 mph4.7 kmh 29.92 in1013.2 mb 0.00 in0.0 mm 0.00 in0.0 mm 0.00 in0.0 mm
07:50 AM 66.2°F19.0°C 59.0°F15.0°C 77% 0.5 mph SSE0.8 kmh SSE 2.5 mph4.0 kmh 29.92 in1013.2 mb 0.00 in0.0 mm 0.00 in0.0 mm 0.00 in0.0 mm
07:55 AM 67.1°F19.5°C 60.8°F16.0°C 77% 0.7 mph S1.1 kmh S 2.9 mph4.7 kmh 29.92 in1013.2 mb 0.00 in0.0 mm 0.00 in0.0 mm 0.00 in0.0 mm
08:00 AM 67.8°F19.9°C 60.8°F16.0°C 77% 1.1 mph S1.8 kmh S 2.9 mph4.7 kmh 29.92 in1013.2 mb 0.00 in0.0 mm 0.00 in0.0 mm 0.00 in0.0 mm
08:05 AM 68.2°F20.1°C 60.8°F16.0°C 76% 1.3 mph S2.1 kmh S 3.1 mph5.0 kmh 29.92 in1013.2 mb 0.00 in0.0 mm 0.00 in0.0 mm 0.00 in0.0 mm
08:10 AM 68.2°F20.1°C 60.8°F16.0°C 76% 1.3 mph SSE2.1 kmh SSE 3.1 mph5.0 kmh 29.92 in1013.2 mb 0.00 in0.0 mm 0.00 in0.0 mm 0.00 in0.0 mm
08:15 AM 68.4°F20.2°C 60.8°F16.0°C 76% 1.2 mph S1.9 kmh S 2.5 mph4.0 kmh 29.92 in1013.2 mb 0.00 in0.0 mm 0.00 in0.0 mm 0.00 in0.0 mm
08:20 AM 68.9°F20.5°C 60.8°F16.0°C 76% 1.6 mph S2.6 kmh S 3.1 mph5.0 kmh 29.92 in1013.2 mb 0.00 in0.0 mm 0.00 in0.0 mm 0.00 in0.0 mm
08:25 AM 68.9°F20.5°C 60.8°F16.0°C 75% 1.9 mph SSE3.1 kmh SSE 4.3 mph6.9 kmh 29.92 in1013.2 mb 0.00 in0.0 mm 0.00 in0.0 mm 0.00 in0.0 mm
08:30 AM 68.9°F20.5°C 60.8°F16.0°C 75% 1.9 mph SSE3.1 kmh SSE 4.3 mph6.9 kmh 29.92 in1013.2 mb 0.00 in0.0 mm 0.00 in0.0 mm 0.00 in0.0 mm
08:35 AM 69.8°F21.0°C 62.6°F17.0°C 75% 2.1 mph SSE3.4 kmh SSE 4.3 mph6.9 kmh 29.92 in1013.2 mb 0.00 in0.0 mm 0.00 in0.0 mm 0.00 in0.0 mm
08:40 AM 70.3°F21.3°C 62.6°F17.0°C 74% 1.9 mph S3.1 kmh S 4.3 mph6.9 kmh 29.92 in1013.2 mb 0.00 in0.0 mm 0.00 in0.0 mm 0.00 in0.0 mm
08:45 AM 71.2°F21.8°C 62.6°F17.0°C 74% 1.7 mph SSW2.7 kmh SSW 2.9 mph4.7 kmh 29.92 in1013.2 mb 0.00 in0.0 mm 0.00 in0.0 mm 0.00 in0.0 mm
08:50 AM 71.8°F22.1°C 62.6°F17.0°C 73% 2.3 mph SSE3.7 kmh SSE 5.8 mph9.3 kmh 29.92 in1013.2 mb 0.00 in0.0 mm 0.00 in0.0 mm 0.00 in0.0 mm
08:55 AM 72.0°F22.2°C 62.6°F17.0°C 72% 3.0 mph SE4.8 kmh SE 5.8 mph9.3 kmh 29.92 in1013.2 mb 0.00 in0.0 mm 0.00 in0.0 mm 0.00 in0.0 mm
09:00 AM 72.9°F22.7°C 64.4°F18.0°C 72% 2.4 mph S3.9 kmh S 4.9 mph7.9 kmh 29.92 in1013.2 mb 0.00 in0.0 mm 0.00 in0.0 mm 0.00 in0.0 mm
09:05 AM 72.9°F22.7°C 62.6°F17.0°C 71% 2.5 mph S4.0 kmh S 4.9 mph7.9 kmh 29.92 in1013.2 mb 0.00 in0.0 mm 0.00 in0.0 mm 0.00 in0.0 mm
09:10 AM 73.0°F22.8°C 62.6°F17.0°C 70% 2.7 mph S4.3 kmh S 4.9 mph7.9 kmh 29.92 in1013.2 mb 0.00 in0.0 mm 0.00 in0.0 mm 0.00 in0.0 mm
09:15 AM 74.3°F23.5°C 64.4°F18.0°C 70% 2.9 mph S4.7 kmh S 4.3 mph6.9 kmh 29.92 in1013.2 mb 0.00 in0.0 mm 0.00 in0.0 mm 0.00 in0.0 mm
09:20 AM 75.4°F24.1°C 64.4°F18.0°C 68% 4.3 mph S6.9 kmh S 6.5 mph10.5 kmh 29.92 in1013.2 mb 0.00 in0.0 mm 0.00 in0.0 mm 0.00 in0.0 mm
09:25 AM 74.7°F23.7°C 64.4°F18.0°C 68% 5.4 mph S8.7 kmh S 7.8 mph12.6 kmh 29.92 in1013.2 mb 0.00 in0.0 mm 0.00 in0.0 mm 0.00 in0.0 mm
09:30 AM 74.3°F23.5°C 64.4°F18.0°C 68% 4.6 mph SSE7.4 kmh SSE 7.8 mph12.6 kmh 29.92 in1013.2 mb 0.00 in0.0 mm 0.00 in0.0 mm 0.00 in0.0 mm
09:35 AM 75.6°F24.2°C 64.4°F18.0°C 66% 4.2 mph SSE6.8 kmh SSE 10.1 mph16.3 kmh 29.89 in1012.2 mb 0.00 in0.0 mm 0.00 in0.0 mm 0.00 in0.0 mm
09:40 AM 75.7°F24.3°C 64.4°F18.0°C 67% 6.1 mph SE9.8 kmh SE 10.7 mph17.2 kmh 29.89 in1012.2 mb 0.00 in0.0 mm 0.00 in0.0 mm 0.00 in0.0 mm
09:45 AM 76.5°F24.7°C 64.4°F18.0°C 65% 5.9 mph SE9.5 kmh SE 10.7 mph17.2 kmh 29.89 in1012.2 mb 0.00 in0.0 mm 0.00 in0.0 mm 0.00 in0.0 mm
09:50 AM 77.4°F25.2°C 64.4°F18.0°C 63% 4.5 mph S7.2 kmh S 10.5 mph16.9 kmh 29.89 in1012.2 mb 0.00 in0.0 mm 0.00 in0.0 mm 0.00 in0.0 mm
09:55 AM 77.7°F25.4°C 64.4°F18.0°C 63% 4.8 mph S7.7 kmh S 7.6 mph12.2 kmh 29.89 in1012.2 mb 0.00 in0.0 mm 0.00 in0.0 mm 0.00 in0.0 mm
10:00 AM 76.6°F24.8°C 62.6°F17.0°C 63% 5.7 mph SSE9.2 kmh SSE 9.8 mph15.8 kmh 29.89 in1012.2 mb 0.00 in0.0 mm 0.00 in0.0 mm 0.00 in0.0 mm
10:05 AM 75.9°F24.4°C 62.6°F17.0°C 63% 5.4 mph SE8.7 kmh SE 12.5 mph20.1 kmh 29.89 in1012.2 mb 0.00 in0.0 mm 0.00 in0.0 mm 0.00 in0.0 mm
10:10 AM 76.5°F24.7°C 62.6°F17.0°C 62% 5.3 mph S8.5 kmh S 12.5 mph20.1 kmh 29.89 in1012.2 mb 0.00 in0.0 mm 0.00 in0.0 mm 0.00 in0.0 mm
10:15 AM 77.7°F25.4°C 62.6°F17.0°C 61% 5.1 mph S8.2 kmh S 12.5 mph20.1 kmh 29.89 in1012.2 mb 0.00 in0.0 mm 0.00 in0.0 mm 0.00 in0.0 mm
10:20 AM 78.3°F25.7°C 64.4°F18.0°C 60% 6.1 mph SE9.8 kmh SE 9.8 mph15.8 kmh 29.89 in1012.2 mb 0.00 in0.0 mm 0.00 in0.0 mm 0.00 in0.0 mm
10:25 AM 79.0°F26.1°C 64.4°F18.0°C 59% 7.1 mph SE11.4 kmh SE 9.8 mph15.8 kmh 29.89 in1012.2 mb 0.00 in0.0 mm 0.00 in0.0 mm 0.00 in0.0 mm
10:30 AM 79.9°F26.6°C 64.4°F18.0°C 58% 5.7 mph SSE9.2 kmh SSE 9.4 mph15.1 kmh 29.89 in1012.2 mb 0.00 in0.0 mm 0.00 in0.0 mm 0.00 in0.0 mm
10:35 AM 81.0°F27.2°C 64.4°F18.0°C 56% 4.9 mph SE7.9 kmh SE 7.8 mph12.6 kmh 29.89 in1012.2 mb 0.00 in0.0 mm 0.00 in0.0 mm 0.00 in0.0 mm
10:40 AM 81.0°F27.2°C 64.4°F18.0°C 56% 4.8 mph SE7.7 kmh SE 7.6 mph12.2 kmh 29.89 in1012.2 mb 0.00 in0.0 mm 0.00 in0.0 mm 0.00 in0.0 mm
10:45 AM 79.9°F26.6°C 64.4°F18.0°C 57% 6.1 mph SSE9.8 kmh SSE 9.6 mph15.4 kmh 29.89 in1012.2 mb 0.00 in0.0 mm 0.00 in0.0 mm 0.00 in0.0 mm
10:50 AM 81.5°F27.5°C 64.4°F18.0°C 54% 7.0 mph SSE11.3 kmh SSE 11.0 mph17.7 kmh 29.89 in1012.2 mb 0.00 in0.0 mm 0.00 in0.0 mm 0.00 in0.0 mm
10:55 AM 81.7°F27.6°C 64.4°F18.0°C 54% 6.8 mph S10.9 kmh S 11.0 mph17.7 kmh 29.89 in1012.2 mb 0.00 in0.0 mm 0.00 in0.0 mm 0.00 in0.0 mm
11:00 AM 80.8°F27.1°C 62.6°F17.0°C 54% 6.1 mph S9.8 kmh S 8.1 mph13.0 kmh 29.89 in1012.2 mb 0.00 in0.0 mm 0.00 in0.0 mm 0.00 in0.0 mm
11:05 AM 81.0°F27.2°C 62.6°F17.0°C 53% 5.7 mph S9.2 kmh S 8.1 mph13.0 kmh 29.89 in1012.2 mb 0.00 in0.0 mm 0.00 in0.0 mm 0.00 in0.0 mm
11:10 AM 81.9°F27.7°C 64.4°F18.0°C 53% 5.4 mph S8.7 kmh S 8.7 mph14.0 kmh 29.89 in1012.2 mb 0.00 in0.0 mm 0.00 in0.0 mm 0.00 in0.0 mm
11:15 AM 84.0°F28.9°C 66.2°F19.0°C 53% 5.2 mph SSW8.4 kmh SSW 8.7 mph14.0 kmh 29.89 in1012.2 mb 0.00 in0.0 mm 0.00 in0.0 mm 0.00 in0.0 mm
11:20 AM 83.7°F28.7°C 64.4°F18.0°C 52% 5.8 mph S9.3 kmh S 7.8 mph12.6 kmh 29.89 in1012.2 mb 0.00 in0.0 mm 0.00 in0.0 mm 0.00 in0.0 mm
11:25 AM 81.7°F27.6°C 62.6°F17.0°C 52% 6.2 mph SSE10.0 kmh SSE 12.5 mph20.1 kmh 29.89 in1012.2 mb 0.00 in0.0 mm 0.00 in0.0 mm 0.00 in0.0 mm
11:30 AM 80.6°F27.0°C 60.8°F16.0°C 51% 6.4 mph SSE10.3 kmh SSE 12.5 mph20.1 kmh 29.89 in1012.2 mb 0.00 in0.0 mm 0.00 in0.0 mm 0.00 in0.0 mm
11:35 AM 81.3°F27.4°C 62.6°F17.0°C 51% 7.4 mph SSE11.9 kmh SSE 9.6 mph15.4 kmh 29.86 in1011.2 mb 0.00 in0.0 mm 0.00 in0.0 mm 0.00 in0.0 mm
11:40 AM 81.5°F27.5°C 62.6°F17.0°C 51% 7.6 mph S12.2 kmh S 9.6 mph15.4 kmh 29.86 in1011.2 mb 0.00 in0.0 mm 0.00 in0.0 mm 0.00 in0.0 mm
11:45 AM 81.5°F27.5°C 62.6°F17.0°C 51% 6.7 mph SSE10.8 kmh SSE 10.5 mph16.9 kmh 29.86 in1011.2 mb 0.00 in0.0 mm 0.00 in0.0 mm 0.00 in0.0 mm
11:50 AM 84.0°F28.9°C 64.4°F18.0°C 50% 6.1 mph SSE9.8 kmh SSE 10.5 mph16.9 kmh 29.86 in1011.2 mb 0.00 in0.0 mm 0.00 in0.0 mm 0.00 in0.0 mm
11:55 AM 84.7°F29.3°C 64.4°F18.0°C 49% 5.6 mph S9.0 kmh S 8.7 mph14.0 kmh 29.86 in1011.2 mb 0.00 in0.0 mm 0.00 in0.0 mm 0.00 in0.0 mm
12:00 PM 84.9°F29.4°C 64.4°F18.0°C 49% 5.3 mph S8.5 kmh S 7.6 mph12.2 kmh 29.86 in1011.2 mb 0.00 in0.0 mm 0.00 in0.0 mm 0.00 in0.0 mm
12:05 PM 85.6°F29.8°C 64.4°F18.0°C 48% 5.0 mph SSE8.0 kmh SSE 7.8 mph12.6 kmh 29.86 in1011.2 mb 0.00 in0.0 mm 0.00 in0.0 mm 0.00 in0.0 mm
12:10 PM 85.3°F29.6°C 64.4°F18.0°C 48% 6.5 mph S10.5 kmh S 10.5 mph16.9 kmh 29.86 in1011.2 mb 0.00 in0.0 mm 0.00 in0.0 mm 0.00 in0.0 mm
12:15 PM 86.0°F30.0°C 64.4°F18.0°C 47% 6.8 mph S10.9 kmh S 10.5 mph16.9 kmh 29.86 in1011.2 mb 0.00 in0.0 mm 0.00 in0.0 mm 0.00 in0.0 mm
12:20 PM 87.8°F31.0°C 64.4°F18.0°C 46% 5.2 mph SSE8.4 kmh SSE 8.5 mph13.7 kmh 29.86 in1011.2 mb 0.00 in0.0 mm 0.00 in0.0 mm 0.00 in0.0 mm
12:25 PM 87.8°F31.0°C 64.4°F18.0°C 45% 5.6 mph SSE9.0 kmh SSE 11.0 mph17.7 kmh 29.86 in1011.2 mb 0.00 in0.0 mm 0.00 in0.0 mm 0.00 in0.0 mm
12:30 PM 87.4°F30.8°C 64.4°F18.0°C 46% 5.7 mph SSE9.2 kmh SSE 11.0 mph17.7 kmh 29.86 in1011.2 mb 0.00 in0.0 mm 0.00 in0.0 mm 0.00 in0.0 mm
12:35 PM 86.7°F30.4°C 64.4°F18.0°C 46% 5.8 mph SE9.3 kmh SE 11.0 mph17.7 kmh 29.86 in1011.2 mb 0.00 in0.0 mm 0.00 in0.0 mm 0.00 in0.0 mm
12:40 PM 85.5°F29.7°C 62.6°F17.0°C 46% 6.2 mph SE10.0 kmh SE 11.0 mph17.7 kmh 29.86 in1011.2 mb 0.00 in0.0 mm 0.00 in0.0 mm 0.00 in0.0 mm
12:45 PM 87.1°F30.6°C 64.4°F18.0°C 45% 6.2 mph S10.0 kmh S 7.8 mph12.6 kmh 29.86 in1011.2 mb 0.00 in0.0 mm 0.00 in0.0 mm 0.00 in0.0 mm
12:50 PM 84.4°F29.1°C 62.6°F17.0°C 46% 5.9 mph S9.5 kmh S 7.8 mph12.6 kmh 29.86 in1011.2 mb 0.00 in0.0 mm 0.00 in0.0 mm 0.00 in0.0 mm
12:55 PM 83.8°F28.8°C 62.6°F17.0°C 48% 5.1 mph S8.2 kmh S 8.7 mph14.0 kmh 29.86 in1011.2 mb 0.00 in0.0 mm 0.00 in0.0 mm 0.00 in0.0 mm
01:00 PM 83.8°F28.8°C 62.6°F17.0°C 47% 4.5 mph S7.2 kmh S 8.7 mph14.0 kmh 29.86 in1011.2 mb 0.00 in0.0 mm 0.00 in0.0 mm 0.00 in0.0 mm
01:05 PM 84.0°F28.9°C 62.6°F17.0°C 47% 4.7 mph SSE7.6 kmh SSE 7.2 mph11.6 kmh 29.83 in1010.2 mb 0.00 in0.0 mm 0.00 in0.0 mm 0.00 in0.0 mm
01:10 PM 84.9°F29.4°C 62.6°F17.0°C 46% 3.9 mph SSE6.3 kmh SSE 7.2 mph11.6 kmh 29.83 in1010.2 mb 0.00 in0.0 mm 0.00 in0.0 mm 0.00 in0.0 mm
01:15 PM 86.2°F30.1°C 62.6°F17.0°C 45% 5.2 mph S8.4 kmh S 10.5 mph16.9 kmh 29.83 in1010.2 mb 0.00 in0.0 mm 0.00 in0.0 mm 0.00 in0.0 mm
01:20 PM 84.0°F28.9°C 62.6°F17.0°C 47% 6.3 mph S10.1 kmh S 10.5 mph16.9 kmh 29.83 in1010.2 mb 0.00 in0.0 mm 0.00 in0.0 mm 0.00 in0.0 mm
01:25 PM 83.8°F28.8°C 62.6°F17.0°C 47% 6.6 mph SSE10.6 kmh SSE 11.0 mph17.7 kmh 29.83 in1010.2 mb 0.00 in0.0 mm 0.00 in0.0 mm 0.00 in0.0 mm
01:30 PM 83.1°F28.4°C 60.8°F16.0°C 47% 7.5 mph SSE12.1 kmh SSE 11.0 mph17.7 kmh 29.83 in1010.2 mb 0.00 in0.0 mm 0.00 in0.0 mm 0.00 in0.0 mm
01:35 PM 84.2°F29.0°C 62.6°F17.0°C 46% 6.7 mph SSE10.8 kmh SSE 10.3 mph16.6 kmh 29.83 in1010.2 mb 0.00 in0.0 mm 0.00 in0.0 mm 0.00 in0.0 mm
01:40 PM 84.7°F29.3°C 62.6°F17.0°C 46% 5.4 mph S8.7 kmh S 10.3 mph16.6 kmh 29.83 in1010.2 mb 0.00 in0.0 mm 0.00 in0.0 mm 0.00 in0.0 mm
01:45 PM 82.9°F28.3°C 60.8°F16.0°C 47% 5.5 mph SSE8.9 kmh SSE 13.2 mph21.2 kmh 29.83 in1010.2 mb 0.00 in0.0 mm 0.00 in0.0 mm 0.00 in0.0 mm
01:50 PM 82.8°F28.2°C 60.8°F16.0°C 47% 5.6 mph SSE9.0 kmh SSE 13.2 mph21.2 kmh 29.83 in1010.2 mb 0.00 in0.0 mm 0.00 in0.0 mm 0.00 in0.0 mm
01:55 PM 82.2°F27.9°C 60.8°F16.0°C 48% 4.9 mph SSE7.9 kmh SSE 7.4 mph11.9 kmh 29.83 in1010.2 mb 0.00 in0.0 mm 0.00 in0.0 mm 0.00 in0.0 mm
02:00 PM 82.2°F27.9°C 60.8°F16.0°C 47% 5.7 mph S9.2 kmh S 10.1 mph16.3 kmh 29.83 in1010.2 mb 0.00 in0.0 mm 0.00 in0.0 mm 0.00 in0.0 mm
02:05 PM 82.0°F27.8°C 60.8°F16.0°C 47% 6.2 mph S10.0 kmh S 10.1 mph16.3 kmh 29.83 in1010.2 mb 0.00 in0.0 mm 0.00 in0.0 mm 0.00 in0.0 mm
02:10 PM 81.1°F27.3°C 59.0°F15.0°C 47% 5.2 mph S8.4 kmh S 9.8 mph15.8 kmh 29.83 in1010.2 mb 0.00 in0.0 mm 0.00 in0.0 mm 0.00 in0.0 mm
02:15 PM 80.4°F26.9°C 60.8°F16.0°C 49% 5.6 mph S9.0 kmh S 8.1 mph13.0 kmh 29.83 in1010.2 mb 0.00 in0.0 mm 0.00 in0.0 mm 0.00 in0.0 mm
02:20 PM 80.6°F27.0°C 59.0°F15.0°C 48% 7.2 mph S11.6 kmh S 12.5 mph20.1 kmh 29.83 in1010.2 mb 0.00 in0.0 mm 0.00 in0.0 mm 0.00 in0.0 mm
02:25 PM 80.2°F26.8°C 59.0°F15.0°C 48% 7.3 mph SSE11.7 kmh SSE 12.5 mph20.1 kmh 29.83 in1010.2 mb 0.00 in0.0 mm 0.00 in0.0 mm 0.00 in0.0 mm
02:30 PM 79.9°F26.6°C 59.0°F15.0°C 49% 6.2 mph S10.0 kmh S 10.7 mph17.2 kmh 29.83 in1010.2 mb 0.00 in0.0 mm 0.00 in0.0 mm 0.00 in0.0 mm
02:35 PM 79.3°F26.3°C 59.0°F15.0°C 49% 5.3 mph S8.5 kmh S 10.7 mph17.2 kmh 29.83 in1010.2 mb 0.00 in0.0 mm 0.00 in0.0 mm 0.00 in0.0 mm
02:40 PM 78.8°F26.0°C 59.0°F15.0°C 50% 4.0 mph S6.4 kmh S 5.8 mph9.3 kmh 29.83 in1010.2 mb 0.00 in0.0 mm 0.00 in0.0 mm 0.00 in0.0 mm
02:45 PM 78.4°F25.8°C 59.0°F15.0°C 50% 4.4 mph SSW7.1 kmh SSW 6.3 mph10.1 kmh 29.83 in1010.2 mb 0.00 in0.0 mm 0.00 in0.0 mm 0.00 in0.0 mm
02:50 PM 77.0°F25.0°C 59.0°F15.0°C 52% 5.2 mph SW8.4 kmh SW 9.4 mph15.1 kmh 29.83 in1010.2 mb 0.00 in0.0 mm 0.00 in0.0 mm 0.00 in0.0 mm
02:55 PM 76.5°F24.7°C 59.0°F15.0°C 55% 4.6 mph SW7.4 kmh SW 9.4 mph15.1 kmh 29.83 in1010.2 mb 0.00 in0.0 mm 0.00 in0.0 mm 0.00 in0.0 mm
03:00 PM 75.4°F24.1°C 59.0°F15.0°C 56% 3.7 mph WSW6.0 kmh WSW 5.6 mph9.0 kmh 29.83 in1010.2 mb 0.00 in0.0 mm 0.00 in0.0 mm 0.00 in0.0 mm
03:05 PM 74.5°F23.6°C 59.0°F15.0°C 59% 4.0 mph W6.4 kmh W 6.3 mph10.1 kmh 29.83 in1010.2 mb 0.00 in0.0 mm 0.00 in0.0 mm 0.00 in0.0 mm
03:10 PM 73.4°F23.0°C 59.0°F15.0°C 61% 3.3 mph W5.3 kmh W 6.3 mph10.1 kmh 29.83 in1010.2 mb 0.06 in1.5 mm 0.72 in18.3 mm 0.06 in1.5 mm
03:15 PM 73.2°F22.9°C 60.8°F16.0°C 63% 1.9 mph W3.1 kmh W 4.9 mph7.9 kmh 29.83 in1010.2 mb 0.06 in1.5 mm 0.00 in0.0 mm 0.06 in1.5 mm
03:20 PM 73.0°F22.8°C 60.8°F16.0°C 64% 1.2 mph NW1.9 kmh NW 2.9 mph4.7 kmh 29.80 in1009.1 mb 0.06 in1.5 mm 0.00 in0.0 mm 0.06 in1.5 mm
03:25 PM 73.6°F23.1°C 60.8°F16.0°C 65% 1.7 mph NE2.7 kmh NE 2.9 mph4.7 kmh 29.80 in1009.1 mb 0.06 in1.5 mm 0.00 in0.0 mm 0.06 in1.5 mm
03:30 PM 73.4°F23.0°C 60.8°F16.0°C 64% 2.6 mph NE4.2 kmh NE 4.0 mph6.4 kmh 29.80 in1009.1 mb 0.06 in1.5 mm 0.00 in0.0 mm 0.06 in1.5 mm
03:35 PM 73.4°F23.0°C 60.8°F16.0°C 65% 2.6 mph ENE4.2 kmh ENE 4.0 mph6.4 kmh 29.80 in1009.1 mb 0.06 in1.5 mm 0.00 in0.0 mm 0.06 in1.5 mm
03:40 PM 73.4°F23.0°C 60.8°F16.0°C 66% 2.5 mph E4.0 kmh E 3.8 mph6.1 kmh 29.80 in1009.1 mb 0.06 in1.5 mm 0.00 in0.0 mm 0.06 in1.5 mm
03:45 PM 73.4°F23.0°C 62.6°F17.0°C 67% 2.7 mph E4.3 kmh E 3.6 mph5.8 kmh 29.80 in1009.1 mb 0.06 in1.5 mm 0.00 in0.0 mm 0.06 in1.5 mm
03:50 PM 73.9°F23.3°C 62.6°F17.0°C 67% 3.6 mph ESE5.8 kmh ESE 6.5 mph10.5 kmh 29.80 in1009.1 mb 0.06 in1.5 mm 0.00 in0.0 mm 0.06 in1.5 mm
03:55 PM 74.1°F23.4°C 62.6°F17.0°C 65% 4.5 mph E7.2 kmh E 6.5 mph10.5 kmh 29.80 in1009.1 mb 0.06 in1.5 mm 0.00 in0.0 mm 0.06 in1.5 mm
04:00 PM 74.3°F23.5°C 62.6°F17.0°C 64% 4.8 mph E7.7 kmh E 6.5 mph10.5 kmh 29.80 in1009.1 mb 0.06 in1.5 mm 0.00 in0.0 mm 0.06 in1.5 mm
04:05 PM 74.5°F23.6°C 60.8°F16.0°C 63% 5.0 mph E8.0 kmh E 8.1 mph13.0 kmh 29.80 in1009.1 mb 0.06 in1.5 mm 0.00 in0.0 mm 0.06 in1.5 mm
04:10 PM 74.3°F23.5°C 60.8°F16.0°C 63% 5.5 mph E8.9 kmh E 8.1 mph13.0 kmh 29.80 in1009.1 mb 0.00 in0.0 mm 0.00 in0.0 mm 0.06 in1.5 mm
04:15 PM 74.1°F23.4°C 60.8°F16.0°C 63% 5.7 mph E9.2 kmh E 8.1 mph13.0 kmh 29.80 in1009.1 mb 0.00 in0.0 mm 0.00 in0.0 mm 0.06 in1.5 mm
04:20 PM 73.9°F23.3°C 60.8°F16.0°C 62% 6.0 mph SE9.7 kmh SE 9.4 mph15.1 kmh 29.80 in1009.1 mb 0.00 in0.0 mm 0.00 in0.0 mm 0.06 in1.5 mm
04:25 PM 73.6°F23.1°C 60.8°F16.0°C 63% 6.1 mph ESE9.8 kmh ESE 9.4 mph15.1 kmh 29.80 in1009.1 mb 0.00 in0.0 mm 0.00 in0.0 mm 0.06 in1.5 mm
04:30 PM 73.6°F23.1°C 60.8°F16.0°C 63% 4.8 mph ESE7.7 kmh ESE 6.5 mph10.5 kmh 29.80 in1009.1 mb 0.00 in0.0 mm 0.00 in0.0 mm 0.06 in1.5 mm
04:35 PM 73.4°F23.0°C 59.0°F15.0°C 62% 5.1 mph E8.2 kmh E 7.4 mph11.9 kmh 29.80 in1009.1 mb 0.00 in0.0 mm 0.00 in0.0 mm 0.06 in1.5 mm
04:40 PM 73.2°F22.9°C 59.0°F15.0°C 62% 6.0 mph E9.7 kmh E 7.4 mph11.9 kmh 29.80 in1009.1 mb 0.00 in0.0 mm 0.00 in0.0 mm 0.06 in1.5 mm
04:45 PM 73.0°F22.8°C 59.0°F15.0°C 62% 5.5 mph ESE8.9 kmh ESE 7.6 mph12.2 kmh 29.80 in1009.1 mb 0.00 in0.0 mm 0.00 in0.0 mm 0.06 in1.5 mm
04:50 PM 72.9°F22.7°C 59.0°F15.0°C 62% 5.8 mph ESE9.3 kmh ESE 7.6 mph12.2 kmh 29.77 in1008.1 mb 0.00 in0.0 mm 0.00 in0.0 mm 0.06 in1.5 mm
04:55 PM 72.9°F22.7°C 59.0°F15.0°C 62% 5.6 mph ESE9.0 kmh ESE 7.6 mph12.2 kmh 29.77 in1008.1 mb 0.00 in0.0 mm 0.00 in0.0 mm 0.06 in1.5 mm
05:00 PM 72.7°F22.6°C 59.0°F15.0°C 62% 5.1 mph ESE8.2 kmh ESE 7.8 mph12.6 kmh 29.77 in1008.1 mb 0.00 in0.0 mm 0.00 in0.0 mm 0.06 in1.5 mm
05:05 PM 72.7°F22.6°C 59.0°F15.0°C 62% 5.6 mph ESE9.0 kmh ESE 7.8 mph12.6 kmh 29.77 in1008.1 mb 0.00 in0.0 mm 0.00 in0.0 mm 0.06 in1.5 mm
05:10 PM 72.7°F22.6°C 59.0°F15.0°C 62% 5.6 mph E9.0 kmh E 7.8 mph12.6 kmh 29.77 in1008.1 mb 0.00 in0.0 mm 0.00 in0.0 mm 0.06 in1.5 mm
05:15 PM 72.5°F22.5°C 59.0°F15.0°C 62% 5.8 mph ESE9.3 kmh ESE 8.5 mph13.7 kmh 29.77 in1008.1 mb 0.00 in0.0 mm 0.00 in0.0 mm 0.06 in1.5 mm
05:20 PM 72.5°F22.5°C 59.0°F15.0°C 62% 5.3 mph ESE8.5 kmh ESE 8.7 mph14.0 kmh 29.77 in1008.1 mb 0.00 in0.0 mm 0.00 in0.0 mm 0.06 in1.5 mm
05:25 PM 72.3°F22.4°C 59.0°F15.0°C 62% 5.3 mph ESE8.5 kmh ESE 8.7 mph14.0 kmh 29.77 in1008.1 mb 0.00 in0.0 mm 0.00 in0.0 mm 0.06 in1.5 mm
05:30 PM 72.5°F22.5°C 59.0°F15.0°C 61% 6.1 mph ESE9.8 kmh ESE 7.6 mph12.2 kmh 29.77 in1008.1 mb 0.00 in0.0 mm 0.00 in0.0 mm 0.06 in1.5 mm
05:35 PM 72.5°F22.5°C 59.0°F15.0°C 62% 6.1 mph ESE9.8 kmh ESE 7.8 mph12.6 kmh 29.77 in1008.1 mb 0.00 in0.0 mm 0.00 in0.0 mm 0.06 in1.5 mm
05:40 PM 72.5°F22.5°C 59.0°F15.0°C 62% 5.2 mph E8.4 kmh E 7.8 mph12.6 kmh 29.77 in1008.1 mb 0.00 in0.0 mm 0.00 in0.0 mm 0.06 in1.5 mm
05:45 PM 72.5°F22.5°C 59.0°F15.0°C 62% 4.5 mph E7.2 kmh E 7.6 mph12.2 kmh 29.77 in1008.1 mb 0.00 in0.0 mm 0.00 in0.0 mm 0.06 in1.5 mm
05:50 PM 72.3°F22.4°C 59.0°F15.0°C 62% 4.7 mph SE7.6 kmh SE 7.6 mph12.2 kmh 29.77 in1008.1 mb 0.00 in0.0 mm 0.00 in0.0 mm 0.06 in1.5 mm
05:55 PM 72.1°F22.3°C 59.0°F15.0°C 62% 4.8 mph ESE7.7 kmh ESE 6.5 mph10.5 kmh 29.77 in1008.1 mb 0.00 in0.0 mm 0.00 in0.0 mm 0.06 in1.5 mm
06:00 PM 72.0°F22.2°C 59.0°F15.0°C 62% 5.3 mph E8.5 kmh E 7.4 mph11.9 kmh 29.77 in1008.1 mb 0.00 in0.0 mm 0.00 in0.0 mm 0.06 in1.5 mm
06:05 PM 71.8°F22.1°C 57.2°F14.0°C 62% 5.9 mph ESE9.5 kmh ESE 7.4 mph11.9 kmh 29.77 in1008.1 mb 0.00 in0.0 mm 0.00 in0.0 mm 0.06 in1.5 mm
06:10 PM 71.6°F22.0°C 57.2°F14.0°C 62% 5.8 mph SE9.3 kmh SE 7.6 mph12.2 kmh 29.77 in1008.1 mb 0.00 in0.0 mm 0.00 in0.0 mm 0.06 in1.5 mm
06:15 PM 71.4°F21.9°C 57.2°F14.0°C 62% 5.7 mph SE9.2 kmh SE 8.1 mph13.0 kmh 29.77 in1008.1 mb 0.00 in0.0 mm 0.00 in0.0 mm 0.06 in1.5 mm
06:20 PM 71.1°F21.7°C 57.2°F14.0°C 62% 6.3 mph SE10.1 kmh SE 8.1 mph13.0 kmh 29.77 in1008.1 mb 0.00 in0.0 mm 0.00 in0.0 mm 0.06 in1.5 mm
06:25 PM 70.9°F21.6°C 57.2°F14.0°C 62% 6.0 mph SE9.7 kmh SE 8.1 mph13.0 kmh 29.77 in1008.1 mb 0.00 in0.0 mm 0.00 in0.0 mm 0.06 in1.5 mm
06:30 PM 70.9°F21.6°C 57.2°F14.0°C 62% 5.0 mph ESE8.0 kmh ESE 7.6 mph12.2 kmh 29.77 in1008.1 mb 0.00 in0.0 mm 0.00 in0.0 mm 0.06 in1.5 mm
06:35 PM 70.7°F21.5°C 57.2°F14.0°C 63% 4.0 mph SE6.4 kmh SE 7.4 mph11.9 kmh 29.77 in1008.1 mb 0.00 in0.0 mm 0.00 in0.0 mm 0.06 in1.5 mm
06:40 PM 70.5°F21.4°C 57.2°F14.0°C 63% 4.4 mph E7.1 kmh E 6.5 mph10.5 kmh 29.77 in1008.1 mb 0.00 in0.0 mm 0.00 in0.0 mm 0.06 in1.5 mm
06:45 PM 70.3°F21.3°C 57.2°F14.0°C 63% 4.6 mph ESE7.4 kmh ESE 6.0 mph9.7 kmh 29.77 in1008.1 mb 0.00 in0.0 mm 0.00 in0.0 mm 0.06 in1.5 mm
06:50 PM 70.0°F21.1°C 57.2°F14.0°C 64% 4.5 mph SE7.2 kmh SE 7.4 mph11.9 kmh 29.74 in1007.1 mb 0.00 in0.0 mm 0.00 in0.0 mm 0.06 in1.5 mm
06:55 PM 69.8°F21.0°C 57.2°F14.0°C 64% 4.8 mph ESE7.7 kmh ESE 7.4 mph11.9 kmh 29.74 in1007.1 mb 0.00 in0.0 mm 0.00 in0.0 mm 0.06 in1.5 mm
07:00 PM 69.4°F20.8°C 57.2°F14.0°C 65% 4.3 mph ESE6.9 kmh ESE 7.2 mph11.6 kmh 29.74 in1007.1 mb 0.00 in0.0 mm 0.00 in0.0 mm 0.06 in1.5 mm
07:05 PM 69.1°F20.6°C 57.2°F14.0°C 65% 4.4 mph ESE7.1 kmh ESE 8.1 mph13.0 kmh 29.74 in1007.1 mb 0.00 in0.0 mm 0.00 in0.0 mm 0.06 in1.5 mm
07:10 PM 68.7°F20.4°C 57.2°F14.0°C 65% 5.2 mph SE8.4 kmh SE 8.1 mph13.0 kmh 29.74 in1007.1 mb 0.00 in0.0 mm 0.00 in0.0 mm 0.06 in1.5 mm
07:15 PM 68.5°F20.3°C 57.2°F14.0°C 66% 4.9 mph SE7.9 kmh SE 8.1 mph13.0 kmh 29.74 in1007.1 mb 0.00 in0.0 mm 0.00 in0.0 mm 0.06 in1.5 mm
07:20 PM 68.4°F20.2°C 57.2°F14.0°C 66% 5.1 mph SE8.2 kmh SE 10.1 mph16.3 kmh 29.74 in1007.1 mb 0.00 in0.0 mm 0.00 in0.0 mm 0.06 in1.5 mm
07:25 PM 68.2°F20.1°C 55.4°F13.0°C 66% 6.1 mph SE9.8 kmh SE 10.1 mph16.3 kmh 29.74 in1007.1 mb 0.00 in0.0 mm 0.00 in0.0 mm 0.06 in1.5 mm
07:30 PM 68.2°F20.1°C 55.4°F13.0°C 66% 6.6 mph SE10.6 kmh SE 10.1 mph16.3 kmh 29.74 in1007.1 mb 0.00 in0.0 mm 0.00 in0.0 mm 0.06 in1.5 mm
07:35 PM 68.0°F20.0°C 57.2°F14.0°C 67% 6.1 mph E9.8 kmh E 10.1 mph16.3 kmh 29.74 in1007.1 mb 0.00 in0.0 mm 0.00 in0.0 mm 0.06 in1.5 mm
07:40 PM 67.8°F19.9°C 57.2°F14.0°C 68% 5.2 mph ENE8.4 kmh ENE 6.5 mph10.5 kmh 29.74 in1007.1 mb 0.00 in0.0 mm 0.00 in0.0 mm 0.06 in1.5 mm
07:45 PM 67.6°F19.8°C 57.2°F14.0°C 68% 4.8 mph E7.7 kmh E 6.9 mph11.1 kmh 29.74 in1007.1 mb 0.00 in0.0 mm 0.00 in0.0 mm 0.06 in1.5 mm
07:50 PM 67.5°F19.7°C 57.2°F14.0°C 68% 5.3 mph ESE8.5 kmh ESE 8.1 mph13.0 kmh 29.74 in1007.1 mb 0.00 in0.0 mm 0.00 in0.0 mm 0.06 in1.5 mm
07:55 PM 67.5°F19.7°C 57.2°F14.0°C 68% 5.3 mph ESE8.5 kmh ESE 8.1 mph13.0 kmh 29.74 in1007.1 mb 0.00 in0.0 mm 0.00 in0.0 mm 0.06 in1.5 mm
08:00 PM 67.3°F19.6°C 57.2°F14.0°C 69% 5.5 mph SE8.9 kmh SE 8.1 mph13.0 kmh 29.74 in1007.1 mb 0.00 in0.0 mm 0.00 in0.0 mm 0.06 in1.5 mm
08:05 PM 67.3°F19.6°C 57.2°F14.0°C 69% 4.7 mph SE7.6 kmh SE 6.5 mph10.5 kmh 29.74 in1007.1 mb 0.00 in0.0 mm 0.00 in0.0 mm 0.06 in1.5 mm
08:10 PM 67.3°F19.6°C 57.2°F14.0°C 70% 4.1 mph SSE6.6 kmh SSE 5.8 mph9.3 kmh 29.74 in1007.1 mb 0.00 in0.0 mm 0.00 in0.0 mm 0.06 in1.5 mm
08:15 PM 67.1°F19.5°C 57.2°F14.0°C 70% 5.5 mph SSE8.9 kmh SSE 10.5 mph16.9 kmh 29.74 in1007.1 mb 0.06 in1.5 mm 0.72 in18.3 mm 0.11 in2.8 mm
08:20 PM 66.7°F19.3°C 57.2°F14.0°C 70% 6.6 mph SSE10.6 kmh SSE 10.5 mph16.9 kmh 29.77 in1008.1 mb 0.06 in1.5 mm 0.00 in0.0 mm 0.11 in2.8 mm
08:25 PM 66.6°F19.2°C 57.2°F14.0°C 71% 8.0 mph S12.9 kmh S 12.8 mph20.6 kmh 29.77 in1008.1 mb 0.06 in1.5 mm 0.00 in0.0 mm 0.11 in2.8 mm
08:30 PM 66.2°F19.0°C 55.4°F13.0°C 70% 7.3 mph S11.7 kmh S 12.8 mph20.6 kmh 29.77 in1008.1 mb 0.06 in1.5 mm 0.00 in0.0 mm 0.11 in2.8 mm
08:35 PM 65.5°F18.6°C 57.2°F14.0°C 72% 6.5 mph S10.5 kmh S 9.4 mph15.1 kmh 29.77 in1008.1 mb 0.06 in1.5 mm 0.00 in0.0 mm 0.11 in2.8 mm
08:40 PM 65.1°F18.4°C 55.4°F13.0°C 73% 5.2 mph SSE8.4 kmh SSE 9.4 mph15.1 kmh 29.77 in1008.1 mb 0.06 in1.5 mm 0.00 in0.0 mm 0.11 in2.8 mm
08:45 PM 64.9°F18.3°C 57.2°F14.0°C 74% 2.5 mph S4.0 kmh S 3.8 mph6.1 kmh 29.77 in1008.1 mb 0.06 in1.5 mm 0.00 in0.0 mm 0.11 in2.8 mm
08:50 PM 64.4°F18.0°C 55.4°F13.0°C 74% 2.3 mph SSW3.7 kmh SSW 5.8 mph9.3 kmh 29.77 in1008.1 mb 0.06 in1.5 mm 0.00 in0.0 mm 0.11 in2.8 mm
08:55 PM 64.4°F18.0°C 57.2°F14.0°C 75% 1.9 mph SSW3.1 kmh SSW 5.8 mph9.3 kmh 29.77 in1008.1 mb 0.13 in3.3 mm 0.84 in21.3 mm 0.18 in4.6 mm
09:00 PM 64.0°F17.8°C 55.4°F13.0°C 76% 1.9 mph SSW3.1 kmh SSW 4.3 mph6.9 kmh 29.77 in1008.1 mb 0.13 in3.3 mm 0.00 in0.0 mm 0.18 in4.6 mm
09:05 PM 63.7°F17.6°C 55.4°F13.0°C 76% 2.2 mph SW3.5 kmh SW 4.3 mph6.9 kmh 29.77 in1008.1 mb 0.18 in4.6 mm 0.60 in15.2 mm 0.24 in6.1 mm
09:10 PM 63.7°F17.6°C 57.2°F14.0°C 77% 1.2 mph WSW1.9 kmh WSW 3.8 mph6.1 kmh 29.77 in1008.1 mb 0.18 in4.6 mm 0.00 in0.0 mm 0.24 in6.1 mm
09:15 PM 63.7°F17.6°C 57.2°F14.0°C 77% 0.2 mph N0.3 kmh N 1.3 mph2.1 kmh 29.77 in1008.1 mb 0.13 in3.3 mm 0.00 in0.0 mm 0.24 in6.1 mm
09:20 PM 63.5°F17.5°C 57.2°F14.0°C 77% 0.9 mph ESE1.4 kmh ESE 2.5 mph4.0 kmh 29.77 in1008.1 mb 0.13 in3.3 mm 0.00 in0.0 mm 0.24 in6.1 mm
09:25 PM 63.5°F17.5°C 57.2°F14.0°C 77% 1.8 mph SE2.9 kmh SE 2.5 mph4.0 kmh 29.77 in1008.1 mb 0.13 in3.3 mm 0.00 in0.0 mm 0.24 in6.1 mm
09:30 PM 63.5°F17.5°C 57.2°F14.0°C 77% 1.6 mph SE2.6 kmh SE 2.7 mph4.3 kmh 29.77 in1008.1 mb 0.18 in4.6 mm 0.60 in15.2 mm 0.29 in7.4 mm
09:35 PM 63.5°F17.5°C 57.2°F14.0°C 77% 1.3 mph SE2.1 kmh SE 4.0 mph6.4 kmh 29.74 in1007.1 mb 0.18 in4.6 mm 0.00 in0.0 mm 0.29 in7.4 mm
09:40 PM 63.5°F17.5°C 57.2°F14.0°C 78% 0.9 mph SE1.4 kmh SE 4.0 mph6.4 kmh 29.74 in1007.1 mb 0.18 in4.6 mm 0.00 in0.0 mm 0.29 in7.4 mm
09:45 PM 63.5°F17.5°C 57.2°F14.0°C 78% 0.3 mph ENE0.5 kmh ENE 1.3 mph2.1 kmh 29.74 in1007.1 mb 0.18 in4.6 mm 0.00 in0.0 mm 0.29 in7.4 mm
09:50 PM 63.5°F17.5°C 57.2°F14.0°C 78% 0.3 mph ENE0.5 kmh ENE 1.3 mph2.1 kmh 29.74 in1007.1 mb 0.11 in2.8 mm 0.00 in0.0 mm 0.29 in7.4 mm
09:55 PM 63.3°F17.4°C 55.4°F13.0°C 78% 0.7 mph NE1.1 kmh NE 2.2 mph3.5 kmh 29.74 in1007.1 mb 0.11 in2.8 mm 0.00 in0.0 mm 0.29 in7.4 mm
10:00 PM 63.0°F17.2°C 55.4°F13.0°C 78% 0.6 mph NNE1.0 kmh NNE 2.2 mph3.5 kmh 29.74 in1007.1 mb 0.11 in2.8 mm 0.00 in0.0 mm 0.29 in7.4 mm
10:05 PM 63.0°F17.2°C 57.2°F14.0°C 79% 0.3 mph NNE0.5 kmh NNE 1.1 mph1.8 kmh 29.74 in1007.1 mb 0.11 in2.8 mm 0.00 in0.0 mm 0.35 in8.9 mm
10:10 PM 62.8°F17.1°C 55.4°F13.0°C 79% 0.5 mph NE0.8 kmh NE 3.4 mph5.5 kmh 29.74 in1007.1 mb 0.11 in2.8 mm 0.00 in0.0 mm 0.35 in8.9 mm
10:15 PM 62.8°F17.1°C 55.4°F13.0°C 79% 1.6 mph E2.6 kmh E 3.4 mph5.5 kmh 29.74 in1007.1 mb 0.11 in2.8 mm 0.00 in0.0 mm 0.35 in8.9 mm
10:20 PM 62.8°F17.1°C 55.4°F13.0°C 79% 2.0 mph E3.2 kmh E 2.9 mph4.7 kmh 29.74 in1007.1 mb 0.11 in2.8 mm 0.00 in0.0 mm 0.35 in8.9 mm
10:25 PM 62.8°F17.1°C 55.4°F13.0°C 79% 1.4 mph NE2.3 kmh NE 2.7 mph4.3 kmh 29.74 in1007.1 mb 0.11 in2.8 mm 0.00 in0.0 mm 0.35 in8.9 mm
10:30 PM 63.0°F17.2°C 57.2°F14.0°C 80% 1.3 mph NE2.1 kmh NE 2.7 mph4.3 kmh 29.74 in1007.1 mb 0.06 in1.5 mm 0.00 in0.0 mm 0.35 in8.9 mm
10:35 PM 62.8°F17.1°C 57.2°F14.0°C 80% 1.0 mph NE1.6 kmh NE 2.5 mph4.0 kmh 29.74 in1007.1 mb 0.06 in1.5 mm 0.00 in0.0 mm 0.35 in8.9 mm
10:40 PM 62.8°F17.1°C 55.4°F13.0°C 79% 0.9 mph NW1.4 kmh NW 2.5 mph4.0 kmh 29.74 in1007.1 mb 0.06 in1.5 mm 0.00 in0.0 mm 0.35 in8.9 mm
10:45 PM 62.8°F17.1°C 57.2°F14.0°C 80% 1.3 mph SW2.1 kmh SW 2.7 mph4.3 kmh 29.74 in1007.1 mb 0.06 in1.5 mm 0.00 in0.0 mm 0.35 in8.9 mm
10:50 PM 62.8°F17.1°C 57.2°F14.0°C 80% 1.0 mph S1.6 kmh S 2.7 mph4.3 kmh 29.71 in1006.1 mb 0.06 in1.5 mm 0.00 in0.0 mm 0.35 in8.9 mm
10:55 PM 62.6°F17.0°C 57.2°F14.0°C 80% 0.9 mph SSW1.4 kmh SSW 2.0 mph3.2 kmh 29.71 in1006.1 mb 0.06 in1.5 mm 0.00 in0.0 mm 0.35 in8.9 mm
11:00 PM 62.4°F16.9°C 57.2°F14.0°C 80% 1.6 mph S2.6 kmh S 3.1 mph5.0 kmh 29.71 in1006.1 mb 0.00 in0.0 mm 0.00 in0.0 mm 0.29 in7.4 mm
11:05 PM 62.4°F16.9°C 57.2°F14.0°C 80% 1.8 mph S2.9 kmh S 3.1 mph5.0 kmh 29.71 in1006.1 mb 0.00 in0.0 mm 0.00 in0.0 mm 0.29 in7.4 mm
11:10 PM 62.1°F16.7°C 55.4°F13.0°C 80% 1.1 mph S1.8 kmh S 2.7 mph4.3 kmh 29.71 in1006.1 mb 0.00 in0.0 mm 0.00 in0.0 mm 0.29 in7.4 mm
11:15 PM 62.1°F16.7°C 55.4°F13.0°C 80% 0.5 mph SSW0.8 kmh SSW 1.6 mph2.6 kmh 29.71 in1006.1 mb 0.00 in0.0 mm 0.00 in0.0 mm 0.29 in7.4 mm
11:20 PM 62.1°F16.7°C 55.4°F13.0°C 80% Calm Calm -- 29.71 in1006.1 mb 0.00 in0.0 mm 0.00 in0.0 mm 0.29 in7.4 mm
11:25 PM 61.9°F16.6°C 55.4°F13.0°C 80% Calm Calm -- 29.71 in1006.1 mb 0.00 in0.0 mm 0.00 in0.0 mm 0.29 in7.4 mm
11:30 PM 61.9°F16.6°C 55.4°F13.0°C 80% Calm Calm -- 29.71 in1006.1 mb 0.00 in0.0 mm 0.00 in0.0 mm 0.29 in7.4 mm
11:35 PM 61.7°F16.5°C 55.4°F13.0°C 80% Calm Calm -- 29.71 in1006.1 mb 0.00 in0.0 mm 0.00 in0.0 mm 0.29 in7.4 mm
11:40 PM 61.7°F16.5°C 55.4°F13.0°C 80% Calm Calm -- 29.71 in1006.1 mb 0.00 in0.0 mm 0.00 in0.0 mm 0.29 in7.4 mm
11:45 PM 61.7°F16.5°C 55.4°F13.0°C 81% 0.1 mph N0.2 kmh N 1.3 mph2.1 kmh 29.71 in1006.1 mb 0.00 in0.0 mm 0.00 in0.0 mm 0.29 in7.4 mm
11:50 PM 61.7°F16.5°C 55.4°F13.0°C 80% 0.1 mph N0.2 kmh N 1.3 mph2.1 kmh 29.71 in1006.1 mb 0.00 in0.0 mm 0.00 in0.0 mm 0.29 in7.4 mm
11:55 PM 61.7°F16.5°C 55.4°F13.0°C 81% 0.2 mph ESE0.3 kmh ESE 1.1 mph1.8 kmh 29.71 in1006.1 mb 0.00 in0.0 mm 0.00 in0.0 mm 0.29 in7.4 mm